sensor_id;sensor_type;location;lat;lon;timestamp;P1;durP1;ratioP1;P2;durP2;ratioP2
12165;SDS011;6146;48.128;11.476;2023-04-08T00:00:20;10.20;;;9.17;;
12165;SDS011;6146;48.128;11.476;2023-04-08T00:02:45;9.23;;;8.33;;
12165;SDS011;6146;48.128;11.476;2023-04-08T00:05:11;9.83;;;8.80;;
12165;SDS011;6146;48.128;11.476;2023-04-08T00:07:36;10.27;;;8.47;;
12165;SDS011;6146;48.128;11.476;2023-04-08T00:10:02;10.47;;;8.83;;
12165;SDS011;6146;48.128;11.476;2023-04-08T00:12:28;9.83;;;8.63;;
12165;SDS011;6146;48.128;11.476;2023-04-08T00:14:54;11.37;;;8.60;;
12165;SDS011;6146;48.128;11.476;2023-04-08T00:17:19;9.47;;;8.33;;
12165;SDS011;6146;48.128;11.476;2023-04-08T00:19:45;9.30;;;8.37;;
12165;SDS011;6146;48.128;11.476;2023-04-08T00:22:11;9.40;;;8.30;;
12165;SDS011;6146;48.128;11.476;2023-04-08T00:24:36;8.47;;;7.67;;
12165;SDS011;6146;48.128;11.476;2023-04-08T00:27:02;9.30;;;8.00;;
12165;SDS011;6146;48.128;11.476;2023-04-08T00:29:28;10.73;;;8.53;;
12165;SDS011;6146;48.128;11.476;2023-04-08T00:31:53;9.53;;;8.37;;
12165;SDS011;6146;48.128;11.476;2023-04-08T00:34:19;8.97;;;7.87;;
12165;SDS011;6146;48.128;11.476;2023-04-08T00:36:45;9.07;;;8.17;;
12165;SDS011;6146;48.128;11.476;2023-04-08T00:39:12;9.23;;;7.87;;
12165;SDS011;6146;48.128;11.476;2023-04-08T00:41:38;9.03;;;7.13;;
12165;SDS011;6146;48.128;11.476;2023-04-08T00:44:03;8.80;;;7.90;;
12165;SDS011;6146;48.128;11.476;2023-04-08T00:46:29;8.60;;;7.70;;
12165;SDS011;6146;48.128;11.476;2023-04-08T00:48:59;8.93;;;7.93;;
12165;SDS011;6146;48.128;11.476;2023-04-08T00:51:26;9.23;;;7.27;;
12165;SDS011;6146;48.128;11.476;2023-04-08T00:53:53;10.00;;;7.87;;
12165;SDS011;6146;48.128;11.476;2023-04-08T00:56:19;7.70;;;6.93;;
12165;SDS011;6146;48.128;11.476;2023-04-08T00:58:45;8.27;;;7.03;;
12165;SDS011;6146;48.128;11.476;2023-04-08T01:01:13;9.17;;;7.83;;
12165;SDS011;6146;48.128;11.476;2023-04-08T01:03:53;9.00;;;7.67;;
12165;SDS011;6146;48.128;11.476;2023-04-08T01:09:24;8.17;;;7.27;;
12165;SDS011;6146;48.128;11.476;2023-04-08T01:11:53;8.97;;;8.10;;
12165;SDS011;6146;48.128;11.476;2023-04-08T01:14:22;8.00;;;7.20;;
12165;SDS011;6146;48.128;11.476;2023-04-08T01:16:51;8.93;;;8.03;;
12165;SDS011;6146;48.128;11.476;2023-04-08T01:19:26;9.17;;;7.57;;
12165;SDS011;6146;48.128;11.476;2023-04-08T01:21:54;8.30;;;7.50;;
12165;SDS011;6146;48.128;11.476;2023-04-08T01:24:29;11.57;;;8.20;;
12165;SDS011;6146;48.128;11.476;2023-04-08T01:26:57;9.23;;;7.40;;
12165;SDS011;6146;48.128;11.476;2023-04-08T01:29:25;9.47;;;7.90;;
12165;SDS011;6146;48.128;11.476;2023-04-08T01:31:52;9.77;;;8.47;;
12165;SDS011;6146;48.128;11.476;2023-04-08T01:34:19;10.30;;;8.10;;
12165;SDS011;6146;48.128;11.476;2023-04-08T01:36:46;8.73;;;7.83;;
12165;SDS011;6146;48.128;11.476;2023-04-08T01:39:13;8.40;;;7.50;;
12165;SDS011;6146;48.128;11.476;2023-04-08T01:41:41;9.30;;;8.30;;
12165;SDS011;6146;48.128;11.476;2023-04-08T01:44:07;8.77;;;7.53;;
12165;SDS011;6146;48.128;11.476;2023-04-08T01:46:34;9.53;;;8.53;;
12165;SDS011;6146;48.128;11.476;2023-04-08T01:49:01;8.83;;;7.93;;
12165;SDS011;6146;48.128;11.476;2023-04-08T01:51:27;9.07;;;8.17;;
12165;SDS011;6146;48.128;11.476;2023-04-08T01:53:55;9.67;;;8.03;;
12165;SDS011;6146;48.128;11.476;2023-04-08T01:56:21;9.10;;;8.20;;
12165;SDS011;6146;48.128;11.476;2023-04-08T01:58:50;9.97;;;8.70;;
12165;SDS011;6146;48.128;11.476;2023-04-08T02:01:18;9.33;;;8.27;;
12165;SDS011;6146;48.128;11.476;2023-04-08T02:03:46;10.17;;;8.60;;
12165;SDS011;6146;48.128;11.476;2023-04-08T02:06:15;9.00;;;7.87;;
12165;SDS011;6146;48.128;11.476;2023-04-08T02:08:41;9.37;;;8.20;;
12165;SDS011;6146;48.128;11.476;2023-04-08T02:11:07;10.10;;;8.20;;
12165;SDS011;6146;48.128;11.476;2023-04-08T02:13:32;8.80;;;7.90;;
12165;SDS011;6146;48.128;11.476;2023-04-08T02:17:01;9.27;;;8.27;;
12165;SDS011;6146;48.128;11.476;2023-04-08T02:19:14;10.10;;;7.80;;
12165;SDS011;6146;48.128;11.476;2023-04-08T02:21:48;8.70;;;7.57;;
12165;SDS011;6146;48.128;11.476;2023-04-08T02:24:21;10.00;;;8.30;;
12165;SDS011;6146;48.128;11.476;2023-04-08T02:26:48;10.03;;;8.97;;
12165;SDS011;6146;48.128;11.476;2023-04-08T02:29:15;12.17;;;8.87;;
12165;SDS011;6146;48.128;11.476;2023-04-08T02:31:42;9.80;;;8.80;;
12165;SDS011;6146;48.128;11.476;2023-04-08T02:34:09;12.20;;;8.73;;
12165;SDS011;6146;48.128;11.476;2023-04-08T02:36:35;10.10;;;8.40;;
12165;SDS011;6146;48.128;11.476;2023-04-08T02:39:03;10.17;;;9.03;;
12165;SDS011;6146;48.128;11.476;2023-04-08T02:41:28;11.70;;;9.00;;
12165;SDS011;6146;48.128;11.476;2023-04-08T02:43:54;11.20;;;9.53;;
12165;SDS011;6146;48.128;11.476;2023-04-08T02:46:20;9.50;;;8.23;;
12165;SDS011;6146;48.128;11.476;2023-04-08T02:48:46;9.73;;;8.73;;
12165;SDS011;6146;48.128;11.476;2023-04-08T02:51:11;9.87;;;8.87;;
12165;SDS011;6146;48.128;11.476;2023-04-08T02:53:37;10.30;;;9.20;;
12165;SDS011;6146;48.128;11.476;2023-04-08T02:56:03;11.20;;;9.43;;
12165;SDS011;6146;48.128;11.476;2023-04-08T02:58:28;11.50;;;9.40;;
12165;SDS011;6146;48.128;11.476;2023-04-08T03:00:54;10.73;;;9.63;;
12165;SDS011;6146;48.128;11.476;2023-04-08T03:03:20;11.00;;;9.63;;
12165;SDS011;6146;48.128;11.476;2023-04-08T03:05:51;10.33;;;9.23;;
12165;SDS011;6146;48.128;11.476;2023-04-08T03:08:18;11.43;;;9.10;;
12165;SDS011;6146;48.128;11.476;2023-04-08T03:10:43;12.17;;;9.53;;
12165;SDS011;6146;48.128;11.476;2023-04-08T03:13:09;12.47;;;9.90;;
12165;SDS011;6146;48.128;11.476;2023-04-08T03:15:35;11.70;;;10.50;;
12165;SDS011;6146;48.128;11.476;2023-04-08T03:18:00;14.43;;;11.13;;
12165;SDS011;6146;48.128;11.476;2023-04-08T03:20:26;12.07;;;10.77;;
12165;SDS011;6146;48.128;11.476;2023-04-08T03:22:51;13.80;;;10.67;;
12165;SDS011;6146;48.128;11.476;2023-04-08T03:25:17;13.93;;;11.10;;
12165;SDS011;6146;48.128;11.476;2023-04-08T03:27:42;13.53;;;10.73;;
12165;SDS011;6146;48.128;11.476;2023-04-08T03:30:08;12.90;;;10.90;;
12165;SDS011;6146;48.128;11.476;2023-04-08T03:32:34;14.57;;;12.03;;
12165;SDS011;6146;48.128;11.476;2023-04-08T03:34:59;14.37;;;12.17;;
12165;SDS011;6146;48.128;11.476;2023-04-08T03:37:25;13.73;;;11.20;;
12165;SDS011;6146;48.128;11.476;2023-04-08T03:39:51;15.00;;;11.07;;
12165;SDS011;6146;48.128;11.476;2023-04-08T03:42:17;15.50;;;11.93;;
12165;SDS011;6146;48.128;11.476;2023-04-08T03:44:42;13.57;;;11.17;;
12165;SDS011;6146;48.128;11.476;2023-04-08T03:47:08;12.60;;;10.93;;
12165;SDS011;6146;48.128;11.476;2023-04-08T03:49:33;15.53;;;12.17;;
12165;SDS011;6146;48.128;11.476;2023-04-08T03:51:59;13.47;;;11.17;;
12165;SDS011;6146;48.128;11.476;2023-04-08T03:54:25;12.93;;;11.53;;
12165;SDS011;6146;48.128;11.476;2023-04-08T03:56:50;13.03;;;10.60;;
12165;SDS011;6146;48.128;11.476;2023-04-08T03:59:16;12.67;;;11.33;;
12165;SDS011;6146;48.128;11.476;2023-04-08T04:01:41;14.57;;;11.50;;
12165;SDS011;6146;48.128;11.476;2023-04-08T04:04:07;14.20;;;12.67;;
12165;SDS011;6146;48.128;11.476;2023-04-08T04:06:32;12.50;;;11.30;;
12165;SDS011;6146;48.128;11.476;2023-04-08T04:08:58;14.63;;;12.17;;
12165;SDS011;6146;48.128;11.476;2023-04-08T04:11:23;12.73;;;11.33;;
12165;SDS011;6146;48.128;11.476;2023-04-08T04:13:50;14.33;;;12.23;;
12165;SDS011;6146;48.128;11.476;2023-04-08T04:16:15;14.70;;;12.40;;
12165;SDS011;6146;48.128;11.476;2023-04-08T04:18:41;12.97;;;11.57;;
12165;SDS011;6146;48.128;11.476;2023-04-08T04:21:07;16.10;;;12.23;;
12165;SDS011;6146;48.128;11.476;2023-04-08T04:23:32;15.93;;;11.87;;
12165;SDS011;6146;48.128;11.476;2023-04-08T04:25:58;14.97;;;11.87;;
12165;SDS011;6146;48.128;11.476;2023-04-08T04:28:23;15.70;;;12.67;;
12165;SDS011;6146;48.128;11.476;2023-04-08T04:30:49;15.07;;;12.63;;
12165;SDS011;6146;48.128;11.476;2023-04-08T04:33:15;17.43;;;13.40;;
12165;SDS011;6146;48.128;11.476;2023-04-08T04:35:40;15.03;;;13.07;;
12165;SDS011;6146;48.128;11.476;2023-04-08T04:38:06;16.07;;;13.73;;
12165;SDS011;6146;48.128;11.476;2023-04-08T04:40:36;16.50;;;14.00;;
12165;SDS011;6146;48.128;11.476;2023-04-08T04:43:02;17.77;;;13.73;;
12165;SDS011;6146;48.128;11.476;2023-04-08T04:45:27;15.83;;;13.77;;
12165;SDS011;6146;48.128;11.476;2023-04-08T04:47:53;18.17;;;14.80;;
12165;SDS011;6146;48.128;11.476;2023-04-08T04:50:18;15.47;;;13.80;;
12165;SDS011;6146;48.128;11.476;2023-04-08T04:52:44;16.53;;;13.77;;
12165;SDS011;6146;48.128;11.476;2023-04-08T04:55:10;16.47;;;13.37;;
12165;SDS011;6146;48.128;11.476;2023-04-08T04:57:35;15.60;;;13.07;;
12165;SDS011;6146;48.128;11.476;2023-04-08T05:00:01;19.20;;;14.03;;
12165;SDS011;6146;48.128;11.476;2023-04-08T05:02:27;18.03;;;15.10;;
12165;SDS011;6146;48.128;11.476;2023-04-08T05:04:53;16.73;;;13.53;;
12165;SDS011;6146;48.128;11.476;2023-04-08T05:07:19;16.07;;;13.63;;
12165;SDS011;6146;48.128;11.476;2023-04-08T05:09:45;17.07;;;13.87;;
12165;SDS011;6146;48.128;11.476;2023-04-08T05:12:11;16.90;;;13.37;;
12165;SDS011;6146;48.128;11.476;2023-04-08T05:14:36;18.77;;;14.43;;
12165;SDS011;6146;48.128;11.476;2023-04-08T05:17:02;17.33;;;14.73;;
12165;SDS011;6146;48.128;11.476;2023-04-08T05:19:29;16.87;;;13.43;;
12165;SDS011;6146;48.128;11.476;2023-04-08T05:21:55;16.33;;;14.53;;
12165;SDS011;6146;48.128;11.476;2023-04-08T05:24:21;15.63;;;13.43;;
12165;SDS011;6146;48.128;11.476;2023-04-08T05:26:46;15.80;;;13.00;;
12165;SDS011;6146;48.128;11.476;2023-04-08T05:29:16;16.03;;;14.03;;
12165;SDS011;6146;48.128;11.476;2023-04-08T05:31:42;14.43;;;12.40;;
12165;SDS011;6146;48.128;11.476;2023-04-08T05:34:08;16.57;;;13.77;;
12165;SDS011;6146;48.128;11.476;2023-04-08T05:36:35;16.00;;;14.10;;
12165;SDS011;6146;48.128;11.476;2023-04-08T05:39:00;17.33;;;14.40;;
12165;SDS011;6146;48.128;11.476;2023-04-08T05:41:26;15.93;;;13.33;;
12165;SDS011;6146;48.128;11.476;2023-04-08T05:43:51;16.30;;;13.70;;
12165;SDS011;6146;48.128;11.476;2023-04-08T05:46:17;16.93;;;12.67;;
12165;SDS011;6146;48.128;11.476;2023-04-08T05:48:42;15.77;;;12.97;;
12165;SDS011;6146;48.128;11.476;2023-04-08T05:51:14;16.70;;;13.57;;
12165;SDS011;6146;48.128;11.476;2023-04-08T05:53:41;15.40;;;13.53;;
12165;SDS011;6146;48.128;11.476;2023-04-08T05:56:09;15.37;;;12.40;;
12165;SDS011;6146;48.128;11.476;2023-04-08T05:58:34;15.20;;;12.37;;
12165;SDS011;6146;48.128;11.476;2023-04-08T06:01:00;13.97;;;12.20;;
12165;SDS011;6146;48.128;11.476;2023-04-08T06:03:25;13.33;;;11.40;;
12165;SDS011;6146;48.128;11.476;2023-04-08T06:05:51;13.27;;;11.33;;
12165;SDS011;6146;48.128;11.476;2023-04-08T06:08:16;13.70;;;12.30;;
12165;SDS011;6146;48.128;11.476;2023-04-08T06:10:48;13.67;;;11.20;;
12165;SDS011;6146;48.128;11.476;2023-04-08T06:13:14;12.47;;;11.17;;
12165;SDS011;6146;48.128;11.476;2023-04-08T06:15:40;12.70;;;11.27;;
12165;SDS011;6146;48.128;11.476;2023-04-08T06:18:05;12.93;;;10.37;;
12165;SDS011;6146;48.128;11.476;2023-04-08T06:20:31;15.63;;;11.53;;
12165;SDS011;6146;48.128;11.476;2023-04-08T06:22:56;12.83;;;11.10;;
12165;SDS011;6146;48.128;11.476;2023-04-08T06:25:22;12.83;;;11.37;;
12165;SDS011;6146;48.128;11.476;2023-04-08T06:27:47;12.13;;;10.93;;
12165;SDS011;6146;48.128;11.476;2023-04-08T06:30:13;12.33;;;11.03;;
12165;SDS011;6146;48.128;11.476;2023-04-08T06:32:40;11.67;;;10.47;;
12165;SDS011;6146;48.128;11.476;2023-04-08T06:35:06;12.77;;;10.57;;
12165;SDS011;6146;48.128;11.476;2023-04-08T06:37:32;12.40;;;11.10;;
12165;SDS011;6146;48.128;11.476;2023-04-08T06:40:02;13.97;;;11.20;;
12165;SDS011;6146;48.128;11.476;2023-04-08T06:42:29;15.03;;;11.97;;
12165;SDS011;6146;48.128;11.476;2023-04-08T06:44:55;13.40;;;12.00;;
12165;SDS011;6146;48.128;11.476;2023-04-08T06:47:20;13.40;;;11.63;;
12165;SDS011;6146;48.128;11.476;2023-04-08T06:49:46;14.23;;;12.73;;
12165;SDS011;6146;48.128;11.476;2023-04-08T06:52:12;13.87;;;12.07;;
12165;SDS011;6146;48.128;11.476;2023-04-08T06:54:37;14.77;;;12.40;;
12165;SDS011;6146;48.128;11.476;2023-04-08T06:57:03;16.03;;;12.27;;
12165;SDS011;6146;48.128;11.476;2023-04-08T06:59:29;15.17;;;12.97;;
12165;SDS011;6146;48.128;11.476;2023-04-08T07:01:54;13.83;;;12.33;;
12165;SDS011;6146;48.128;11.476;2023-04-08T07:04:20;13.90;;;12.50;;
12165;SDS011;6146;48.128;11.476;2023-04-08T07:06:46;13.93;;;12.53;;
12165;SDS011;6146;48.128;11.476;2023-04-08T07:09:11;15.87;;;13.87;;
12165;SDS011;6146;48.128;11.476;2023-04-08T07:11:37;15.53;;;13.27;;
12165;SDS011;6146;48.128;11.476;2023-04-08T07:14:03;16.23;;;13.57;;
12165;SDS011;6146;48.128;11.476;2023-04-08T07:16:28;16.40;;;12.93;;
12165;SDS011;6146;48.128;11.476;2023-04-08T07:18:54;14.97;;;12.60;;
12165;SDS011;6146;48.128;11.476;2023-04-08T07:21:20;15.20;;;13.60;;
12165;SDS011;6146;48.128;11.476;2023-04-08T07:23:45;15.10;;;13.50;;
12165;SDS011;6146;48.128;11.476;2023-04-08T07:26:11;14.27;;;12.77;;
12165;SDS011;6146;48.128;11.476;2023-04-08T07:28:36;14.90;;;12.97;;
12165;SDS011;6146;48.128;11.476;2023-04-08T07:31:13;13.50;;;12.10;;
12165;SDS011;6146;48.128;11.476;2023-04-08T07:33:40;14.77;;;13.17;;
12165;SDS011;6146;48.128;11.476;2023-04-08T07:36:07;14.87;;;12.73;;
12165;SDS011;6146;48.128;11.476;2023-04-08T07:38:34;14.23;;;12.73;;
12165;SDS011;6146;48.128;11.476;2023-04-08T07:41:00;15.00;;;13.37;;
12165;SDS011;6146;48.128;11.476;2023-04-08T07:43:25;15.10;;;13.50;;
12165;SDS011;6146;48.128;11.476;2023-04-08T07:45:51;15.10;;;13.07;;
12165;SDS011;6146;48.128;11.476;2023-04-08T07:48:16;14.93;;;13.43;;
12165;SDS011;6146;48.128;11.476;2023-04-08T07:50:42;15.03;;;13.40;;
12165;SDS011;6146;48.128;11.476;2023-04-08T07:53:09;14.83;;;13.23;;
12165;SDS011;6146;48.128;11.476;2023-04-08T07:55:35;13.10;;;11.80;;
12165;SDS011;6146;48.128;11.476;2023-04-08T07:58:00;13.17;;;11.77;;
12165;SDS011;6146;48.128;11.476;2023-04-08T08:00:26;14.00;;;12.17;;
12165;SDS011;6146;48.128;11.476;2023-04-08T08:02:54;12.63;;;11.30;;
12165;SDS011;6146;48.128;11.476;2023-04-08T08:05:20;13.43;;;12.03;;
12165;SDS011;6146;48.128;11.476;2023-04-08T08:07:45;12.00;;;10.73;;
12165;SDS011;6146;48.128;11.476;2023-04-08T08:10:11;12.00;;;10.70;;
12165;SDS011;6146;48.128;11.476;2023-04-08T08:12:36;11.93;;;10.70;;
12165;SDS011;6146;48.128;11.476;2023-04-08T08:15:02;12.70;;;10.67;;
12165;SDS011;6146;48.128;11.476;2023-04-08T08:17:28;11.37;;;10.27;;
12165;SDS011;6146;48.128;11.476;2023-04-08T08:19:55;11.67;;;10.47;;
12165;SDS011;6146;48.128;11.476;2023-04-08T08:22:21;13.20;;;10.53;;
12165;SDS011;6146;48.128;11.476;2023-04-08T08:24:46;12.27;;;10.97;;
12165;SDS011;6146;48.128;11.476;2023-04-08T08:27:12;13.27;;;11.07;;
12165;SDS011;6146;48.128;11.476;2023-04-08T08:29:37;11.83;;;10.63;;
12165;SDS011;6146;48.128;11.476;2023-04-08T08:32:03;11.90;;;10.30;;
12165;SDS011;6146;48.128;11.476;2023-04-08T08:34:29;12.20;;;10.90;;
12165;SDS011;6146;48.128;11.476;2023-04-08T08:36:54;16.17;;;12.07;;
12165;SDS011;6146;48.128;11.476;2023-04-08T08:39:20;12.27;;;10.97;;
12165;SDS011;6146;48.128;11.476;2023-04-08T08:41:46;13.13;;;11.73;;
12165;SDS011;6146;48.128;11.476;2023-04-08T08:44:12;12.97;;;11.67;;
12165;SDS011;6146;48.128;11.476;2023-04-08T08:46:44;13.20;;;11.33;;
12165;SDS011;6146;48.128;11.476;2023-04-08T08:49:12;13.17;;;11.73;;
12165;SDS011;6146;48.128;11.476;2023-04-08T08:51:39;12.57;;;11.27;;
12165;SDS011;6146;48.128;11.476;2023-04-08T08:54:05;14.23;;;11.90;;
12165;SDS011;6146;48.128;11.476;2023-04-08T08:56:32;12.63;;;11.33;;
12165;SDS011;6146;48.128;11.476;2023-04-08T08:58:58;12.53;;;10.40;;
12165;SDS011;6146;48.128;11.476;2023-04-08T09:01:34;12.63;;;11.33;;
12165;SDS011;6146;48.128;11.476;2023-04-08T09:06:36;12.53;;;11.23;;
12165;SDS011;6146;48.128;11.476;2023-04-08T09:09:02;13.10;;;11.20;;
12165;SDS011;6146;48.128;11.476;2023-04-08T09:11:34;12.30;;;11.00;;
12165;SDS011;6146;48.128;11.476;2023-04-08T09:14:01;11.90;;;10.60;;
12165;SDS011;6146;48.128;11.476;2023-04-08T09:16:26;13.70;;;11.17;;
12165;SDS011;6146;48.128;11.476;2023-04-08T09:18:53;14.43;;;11.53;;
12165;SDS011;6146;48.128;11.476;2023-04-08T09:21:21;12.37;;;11.07;;
12165;SDS011;6146;48.128;11.476;2023-04-08T09:23:49;12.60;;;10.77;;
12165;SDS011;6146;48.128;11.476;2023-04-08T09:26:21;12.20;;;11.00;;
12165;SDS011;6146;48.128;11.476;2023-04-08T09:29:01;11.97;;;10.77;;
12165;SDS011;6146;48.128;11.476;2023-04-08T09:31:29;11.90;;;10.73;;
12165;SDS011;6146;48.128;11.476;2023-04-08T09:33:57;12.33;;;11.13;;
12165;SDS011;6146;48.128;11.476;2023-04-08T09:36:24;12.37;;;11.17;;
12165;SDS011;6146;48.128;11.476;2023-04-08T09:38:51;11.87;;;10.73;;
12165;SDS011;6146;48.128;11.476;2023-04-08T09:41:17;12.73;;;11.43;;
12165;SDS011;6146;48.128;11.476;2023-04-08T09:43:48;13.60;;;11.33;;
12165;SDS011;6146;48.128;11.476;2023-04-08T09:46:14;13.07;;;11.70;;
12165;SDS011;6146;48.128;11.476;2023-04-08T09:51:35;12.73;;;11.33;;
12165;SDS011;6146;48.128;11.476;2023-04-08T09:54:18;15.97;;;12.17;;
12165;SDS011;6146;48.128;11.476;2023-04-08T09:56:48;14.47;;;11.83;;
12165;SDS011;6146;48.128;11.476;2023-04-08T09:59:24;12.13;;;10.97;;
12165;SDS011;6146;48.128;11.476;2023-04-08T10:01:53;13.90;;;11.70;;
12165;SDS011;6146;48.128;11.476;2023-04-08T10:04:22;14.20;;;12.40;;
12165;SDS011;6146;48.128;11.476;2023-04-08T10:06:53;13.90;;;12.23;;
12165;SDS011;6146;48.128;11.476;2023-04-08T10:09:25;14.03;;;12.33;;
12165;SDS011;6146;48.128;11.476;2023-04-08T10:11:52;12.63;;;11.33;;
12165;SDS011;6146;48.128;11.476;2023-04-08T10:14:17;13.67;;;12.13;;
12165;SDS011;6146;48.128;11.476;2023-04-08T10:16:45;13.50;;;11.77;;
12165;SDS011;6146;48.128;11.476;2023-04-08T10:27:40;16.40;;;14.60;;
12165;SDS011;6146;48.128;11.476;2023-04-08T10:35:30;13.70;;;12.37;;
12165;SDS011;6146;48.128;11.476;2023-04-08T10:38:16;14.73;;;13.23;;
12165;SDS011;6146;48.128;11.476;2023-04-08T10:40:42;13.60;;;12.27;;
12165;SDS011;6146;48.128;11.476;2023-04-08T10:43:09;15.63;;;14.03;;
12165;SDS011;6146;48.128;11.476;2023-04-08T10:45:36;14.90;;;13.33;;
12165;SDS011;6146;48.128;11.476;2023-04-08T10:48:18;14.17;;;12.87;;
12165;SDS011;6146;48.128;11.476;2023-04-08T10:53:28;15.10;;;13.53;;
12165;SDS011;6146;48.128;11.476;2023-04-08T10:56:05;13.97;;;12.57;;
12165;SDS011;6146;48.128;11.476;2023-04-08T10:58:46;14.13;;;12.63;;
12165;SDS011;6146;48.128;11.476;2023-04-08T11:01:15;14.00;;;12.50;;
12165;SDS011;6146;48.128;11.476;2023-04-08T11:03:41;15.10;;;13.50;;
12165;SDS011;6146;48.128;11.476;2023-04-08T11:06:07;16.17;;;13.67;;
12165;SDS011;6146;48.128;11.476;2023-04-08T11:08:33;15.13;;;13.43;;
12165;SDS011;6146;48.128;11.476;2023-04-08T11:11:01;15.13;;;13.53;;
12165;SDS011;6146;48.128;11.476;2023-04-08T11:13:28;15.70;;;13.90;;
12165;SDS011;6146;48.128;11.476;2023-04-08T11:15:55;15.53;;;13.93;;
12165;SDS011;6146;48.128;11.476;2023-04-08T11:18:22;19.60;;;17.50;;
12165;SDS011;6146;48.128;11.476;2023-04-08T11:20:49;16.47;;;14.77;;
12165;SDS011;6146;48.128;11.476;2023-04-08T11:23:16;15.53;;;13.93;;
12165;SDS011;6146;48.128;11.476;2023-04-08T11:25:42;19.67;;;14.83;;
12165;SDS011;6146;48.128;11.476;2023-04-08T11:28:12;18.50;;;15.03;;
12165;SDS011;6146;48.128;11.476;2023-04-08T11:30:39;17.27;;;13.90;;
12165;SDS011;6146;48.128;11.476;2023-04-08T11:33:08;16.83;;;14.70;;
12165;SDS011;6146;48.128;11.476;2023-04-08T11:35:38;14.30;;;12.80;;
12165;SDS011;6146;48.128;11.476;2023-04-08T11:38:04;15.00;;;13.47;;
12165;SDS011;6146;48.128;11.476;2023-04-08T11:40:30;16.47;;;14.30;;
12165;SDS011;6146;48.128;11.476;2023-04-08T11:42:55;14.30;;;12.80;;
12165;SDS011;6146;48.128;11.476;2023-04-08T11:45:21;14.90;;;13.27;;
12165;SDS011;6146;48.128;11.476;2023-04-08T11:47:46;14.40;;;12.90;;
12165;SDS011;6146;48.128;11.476;2023-04-08T11:50:12;14.43;;;12.90;;
12165;SDS011;6146;48.128;11.476;2023-04-08T11:52:50;14.30;;;12.90;;
12165;SDS011;6146;48.128;11.476;2023-04-08T11:58:01;14.90;;;12.53;;
12165;SDS011;6146;48.128;11.476;2023-04-08T12:00:28;14.53;;;13.13;;
12165;SDS011;6146;48.128;11.476;2023-04-08T12:02:55;14.17;;;12.77;;
12165;SDS011;6146;48.128;11.476;2023-04-08T12:05:20;14.67;;;13.27;;
12165;SDS011;6146;48.128;11.476;2023-04-08T12:07:46;14.07;;;12.60;;
12165;SDS011;6146;48.128;11.476;2023-04-08T12:10:12;14.77;;;12.93;;
12165;SDS011;6146;48.128;11.476;2023-04-08T12:12:38;15.20;;;13.60;;
12165;SDS011;6146;48.128;11.476;2023-04-08T12:15:05;14.10;;;12.37;;
12165;SDS011;6146;48.128;11.476;2023-04-08T12:17:32;14.60;;;13.20;;
12165;SDS011;6146;48.128;11.476;2023-04-08T12:19:58;15.87;;;14.23;;
12165;SDS011;6146;48.128;11.476;2023-04-08T12:22:25;16.07;;;14.13;;
12165;SDS011;6146;48.128;11.476;2023-04-08T12:24:50;17.10;;;15.43;;
12165;SDS011;6146;48.128;11.476;2023-04-08T12:27:16;16.37;;;14.70;;
12165;SDS011;6146;48.128;11.476;2023-04-08T12:29:42;16.40;;;14.77;;
12165;SDS011;6146;48.128;11.476;2023-04-08T12:32:07;17.70;;;15.60;;
12165;SDS011;6146;48.128;11.476;2023-04-08T12:34:33;15.47;;;13.87;;
12165;SDS011;6146;48.128;11.476;2023-04-08T12:36:59;15.53;;;13.93;;
12165;SDS011;6146;48.128;11.476;2023-04-08T12:39:24;16.17;;;14.20;;
12165;SDS011;6146;48.128;11.476;2023-04-08T12:41:50;15.60;;;14.10;;
12165;SDS011;6146;48.128;11.476;2023-04-08T12:44:16;17.07;;;14.27;;
12165;SDS011;6146;48.128;11.476;2023-04-08T12:46:42;13.80;;;12.47;;
12165;SDS011;6146;48.128;11.476;2023-04-08T12:49:07;15.97;;;14.37;;
12165;SDS011;6146;48.128;11.476;2023-04-08T12:51:33;14.13;;;12.63;;
12165;SDS011;6146;48.128;11.476;2023-04-08T12:54:00;15.37;;;13.40;;
12165;SDS011;6146;48.128;11.476;2023-04-08T12:56:27;14.90;;;13.40;;
12165;SDS011;6146;48.128;11.476;2023-04-08T12:58:53;13.80;;;12.13;;
12165;SDS011;6146;48.128;11.476;2023-04-08T13:01:19;12.37;;;11.17;;
12165;SDS011;6146;48.128;11.476;2023-04-08T13:03:45;13.03;;;11.73;;
12165;SDS011;6146;48.128;11.476;2023-04-08T13:06:11;16.23;;;12.60;;
12165;SDS011;6146;48.128;11.476;2023-04-08T13:08:37;13.17;;;11.87;;
12165;SDS011;6146;48.128;11.476;2023-04-08T13:11:03;11.97;;;10.77;;
12165;SDS011;6146;48.128;11.476;2023-04-08T13:13:28;10.53;;;9.53;;
12165;SDS011;6146;48.128;11.476;2023-04-08T13:15:54;11.40;;;10.20;;
12165;SDS011;6146;48.128;11.476;2023-04-08T13:18:20;11.33;;;10.23;;
12165;SDS011;6146;48.128;11.476;2023-04-08T13:20:46;11.77;;;10.57;;
12165;SDS011;6146;48.128;11.476;2023-04-08T13:23:12;11.80;;;10.43;;
12165;SDS011;6146;48.128;11.476;2023-04-08T13:25:39;12.57;;;11.27;;
12165;SDS011;6146;48.128;11.476;2023-04-08T13:28:04;11.33;;;10.13;;
12165;SDS011;6146;48.128;11.476;2023-04-08T13:30:30;11.67;;;10.27;;
12165;SDS011;6146;48.128;11.476;2023-04-08T13:32:56;11.47;;;10.27;;
12165;SDS011;6146;48.128;11.476;2023-04-08T13:35:21;11.70;;;10.50;;
12165;SDS011;6146;48.128;11.476;2023-04-08T13:37:47;12.03;;;10.77;;
12165;SDS011;6146;48.128;11.476;2023-04-08T13:40:12;12.70;;;11.30;;
12165;SDS011;6146;48.128;11.476;2023-04-08T13:42:38;12.97;;;11.27;;
12165;SDS011;6146;48.128;11.476;2023-04-08T13:45:04;12.17;;;10.80;;
12165;SDS011;6146;48.128;11.476;2023-04-08T13:47:29;11.87;;;10.63;;
12165;SDS011;6146;48.128;11.476;2023-04-08T13:49:55;12.20;;;10.00;;
12165;SDS011;6146;48.128;11.476;2023-04-08T13:52:21;12.07;;;10.77;;
12165;SDS011;6146;48.128;11.476;2023-04-08T13:54:46;12.27;;;10.77;;
12165;SDS011;6146;48.128;11.476;2023-04-08T13:57:12;11.80;;;9.83;;
12165;SDS011;6146;48.128;11.476;2023-04-08T13:59:37;12.27;;;11.07;;
12165;SDS011;6146;48.128;11.476;2023-04-08T14:02:03;11.43;;;10.23;;
12165;SDS011;6146;48.128;11.476;2023-04-08T14:04:28;12.90;;;11.40;;
12165;SDS011;6146;48.128;11.476;2023-04-08T14:06:54;13.40;;;11.97;;
12165;SDS011;6146;48.128;11.476;2023-04-08T14:09:22;14.00;;;11.57;;
12165;SDS011;6146;48.128;11.476;2023-04-08T14:11:48;12.47;;;11.23;;
12165;SDS011;6146;48.128;11.476;2023-04-08T14:14:13;12.83;;;11.53;;
12165;SDS011;6146;48.128;11.476;2023-04-08T14:16:39;12.40;;;11.13;;
12165;SDS011;6146;48.128;11.476;2023-04-08T14:19:05;12.90;;;11.27;;
12165;SDS011;6146;48.128;11.476;2023-04-08T14:21:31;11.70;;;10.50;;
12165;SDS011;6146;48.128;11.476;2023-04-08T14:23:57;11.83;;;10.50;;
12165;SDS011;6146;48.128;11.476;2023-04-08T14:26:22;11.30;;;10.17;;
12165;SDS011;6146;48.128;11.476;2023-04-08T14:28:48;12.83;;;11.30;;
12165;SDS011;6146;48.128;11.476;2023-04-08T14:31:14;10.87;;;9.67;;
12165;SDS011;6146;48.128;11.476;2023-04-08T14:33:40;11.17;;;9.90;;
12165;SDS011;6146;48.128;11.476;2023-04-08T14:36:07;11.50;;;10.40;;
12165;SDS011;6146;48.128;11.476;2023-04-08T14:38:33;11.73;;;10.50;;
12165;SDS011;6146;48.128;11.476;2023-04-08T14:40:59;11.00;;;9.90;;
12165;SDS011;6146;48.128;11.476;2023-04-08T14:43:25;11.43;;;9.90;;
12165;SDS011;6146;48.128;11.476;2023-04-08T14:45:50;10.83;;;9.73;;
12165;SDS011;6146;48.128;11.476;2023-04-08T14:48:16;11.47;;;10.30;;
12165;SDS011;6146;48.128;11.476;2023-04-08T14:50:42;11.07;;;10.03;;